Time;durP1;ratioP1;P1;durP2;ratioP2;P2;SDS_P1;SDS_P2;PMS_P1;PMS_P2;Temp;Humidity;BMP_temperature;BMP_pressure;BME280_temperature;BME280_humidity;BME280_pressure;Samples;Min_cycle;Max_cycle;Signal;HPM_P1;HPM_P2
2023/08/10 00:01:14;;;;;;;2.63;1.17;;;;;;;;;;4978721;28;20216;-85
2023/08/10 00:03:42;;;;;;;1.77;1.30;;;;;;;;;;5038630;28;20271;-85
2023/08/10 00:06:08;;;;;;;2.17;1.60;;;;;;;;;;5016411;28;20219;-84
2023/08/10 00:08:35;;;;;;;2.47;1.40;;;;;;;;;;4998774;28;20271;-85
2023/08/10 00:11:06;;;;;;;1.40;1.27;;;;;;;;;;5006201;28;20230;-85
2023/08/10 00:13:34;;;;;;;3.47;1.30;;;;;;;;;;5029830;28;20803;-85
2023/08/10 00:16:00;;;;;;;4.77;1.50;;;;;;;;;;5023299;28;20215;-85
2023/08/10 00:18:25;;;;;;;1.27;1.17;;;;;;;;;;5016480;28;20224;-84
2023/08/10 00:20:51;;;;;;;2.37;1.47;;;;;;;;;;4991602;28;20220;-85
2023/08/10 00:23:16;;;;;;;1.63;1.20;;;;;;;;;;5005590;28;20227;-85
2023/08/10 00:25:42;;;;;;;1.80;1.33;;;;;;;;;;4981166;28;20212;-85
2023/08/10 00:28:08;;;;;;;2.03;1.30;;;;;;;;;;4990354;28;20295;-85
2023/08/10 00:30:34;;;;;;;2.83;1.40;;;;;;;;;;4999685;28;20275;-86
2023/08/10 00:32:59;;;;;;;1.30;1.20;;;;;;;;;;5005868;28;20227;-86
2023/08/10 00:35:25;;;;;;;2.40;1.33;;;;;;;;;;4978706;28;20217;-86
2023/08/10 00:37:53;;;;;;;3.13;1.47;;;;;;;;;;4984535;28;20236;-86
2023/08/10 00:40:21;;;;;;;2.27;1.30;;;;;;;;;;4980257;28;20237;-86
2023/08/10 00:42:49;;;;;;;1.97;1.40;;;;;;;;;;5010057;28;20228;-85
2023/08/10 00:45:17;;;;;;;1.20;1.07;;;;;;;;;;4998563;28;20226;-86
2023/08/10 00:47:47;;;;;;;1.10;1.07;;;;;;;;;;5006966;28;20221;-85
2023/08/10 00:50:17;;;;;;;4.27;1.13;;;;;;;;;;4990985;28;20232;-86
2023/08/10 00:52:45;;;;;;;1.87;1.20;;;;;;;;;;4986948;28;20232;-86
2023/08/10 00:55:11;;;;;;;1.30;0.90;;;;;;;;;;4999951;28;20221;-85
2023/08/10 00:57:42;;;;;;;1.50;1.40;;;;;;;;;;4987526;28;20599;-86
2023/08/10 01:00:10;;;;;;;2.20;1.23;;;;;;;;;;4989976;28;20224;-86
2023/08/10 01:02:40;;;;;;;5.07;1.30;;;;;;;;;;4974274;28;20221;-86
2023/08/10 01:05:14;;;;;;;2.23;1.40;;;;;;;;;;5014754;28;20212;-84
2023/08/10 01:07:55;;;;;;;2.03;1.40;;;;;;;;;;4997590;28;20220;-86
2023/08/10 01:11:00;;;;;;;2.80;1.10;;;;;;;;;;5008342;28;20225;-85
2023/08/10 01:13:28;;;;;;;4.00;1.50;;;;;;;;;;5000181;28;20226;-85
2023/08/10 01:15:58;;;;;;;1.30;1.20;;;;;;;;;;4998910;28;20279;-86
2023/08/10 01:18:30;;;;;;;1.23;1.13;;;;;;;;;;4982297;28;20300;-85
2023/08/10 01:20:57;;;;;;;1.97;1.10;;;;;;;;;;5019119;28;20263;-86
2023/08/10 01:23:28;;;;;;;2.83;1.30;;;;;;;;;;5019638;28;20229;-85
2023/08/10 01:25:54;;;;;;;3.87;1.10;;;;;;;;;;5006378;28;20231;-86
2023/08/10 01:28:19;;;;;;;1.33;1.10;;;;;;;;;;4990592;28;20221;-86
2023/08/10 01:30:47;;;;;;;2.40;1.23;;;;;;;;;;4990615;28;20227;-86
2023/08/10 01:33:13;;;;;;;2.67;1.30;;;;;;;;;;4995970;28;20728;-86
2023/08/10 01:35:39;;;;;;;2.50;1.40;;;;;;;;;;5009707;28;20224;-86
2023/08/10 01:38:05;;;;;;;1.40;1.20;;;;;;;;;;5020518;28;20229;-85
2023/08/10 01:40:35;;;;;;;1.67;1.40;;;;;;;;;;4995854;28;20232;-85
2023/08/10 01:43:02;;;;;;;1.47;1.10;;;;;;;;;;5030442;28;20272;-86
2023/08/10 01:45:27;;;;;;;2.67;1.20;;;;;;;;;;5019574;28;20223;-84
2023/08/10 01:48:08;;;;;;;1.47;1.00;;;;;;;;;;5041956;28;20228;-84
2023/08/10 01:50:41;;;;;;;3.50;1.33;;;;;;;;;;5043735;28;20239;-84
2023/08/10 01:53:11;;;;;;;3.03;1.40;;;;;;;;;;5022324;28;20284;-84
2023/08/10 01:55:37;;;;;;;3.17;1.50;;;;;;;;;;4989261;28;20217;-87
2023/08/10 01:58:05;;;;;;;1.67;1.33;;;;;;;;;;4990546;28;20820;-86
2023/08/10 02:00:31;;;;;;;2.33;1.50;;;;;;;;;;4986006;28;20236;-87
2023/08/10 02:02:57;;;;;;;1.73;0.90;;;;;;;;;;5014530;28;20225;-85
2023/08/10 02:05:25;;;;;;;1.17;1.07;;;;;;;;;;5013152;28;20300;-86
2023/08/10 02:07:53;;;;;;;1.00;0.90;;;;;;;;;;4975355;28;20305;-87
2023/08/10 02:10:18;;;;;;;2.50;0.90;;;;;;;;;;4988729;28;20223;-86
2023/08/10 02:12:44;;;;;;;1.30;1.13;;;;;;;;;;5012135;28;20216;-87
2023/08/10 02:15:12;;;;;;;1.43;1.20;;;;;;;;;;5044367;28;20216;-86
2023/08/10 02:17:38;;;;;;;1.50;1.27;;;;;;;;;;5011563;28;20219;-86
2023/08/10 02:20:12;;;;;;;4.07;1.27;;;;;;;;;;5004527;28;20225;-86
2023/08/10 02:22:42;;;;;;;1.10;1.00;;;;;;;;;;4984604;28;20728;-86
2023/08/10 02:25:09;;;;;;;2.57;1.23;;;;;;;;;;5023448;28;20308;-85
2023/08/10 02:27:35;;;;;;;2.87;1.23;;;;;;;;;;4971388;28;20217;-85
2023/08/10 02:30:00;;;;;;;1.83;1.33;;;;;;;;;;5001593;28;20232;-86
2023/08/10 02:32:26;;;;;;;4.07;1.40;;;;;;;;;;5023564;28;20266;-86
2023/08/10 02:34:51;;;;;;;1.23;1.13;;;;;;;;;;5008016;28;20690;-85
2023/08/10 02:37:17;;;;;;;1.97;1.20;;;;;;;;;;4984277;28;20718;-86
2023/08/10 02:39:43;;;;;;;1.30;1.20;;;;;;;;;;4997830;28;20235;-86
2023/08/10 02:42:09;;;;;;;1.83;1.43;;;;;;;;;;5037621;28;20236;-86
2023/08/10 02:44:38;;;;;;;1.47;1.20;;;;;;;;;;4995920;28;20209;-86
2023/08/10 02:47:03;;;;;;;2.20;1.40;;;;;;;;;;5018124;28;20232;-86
2023/08/10 02:49:33;;;;;;;1.47;1.33;;;;;;;;;;4991971;28;20215;-85
2023/08/10 02:52:01;;;;;;;2.70;2.00;;;;;;;;;;4988183;28;20227;-86
2023/08/10 02:54:29;;;;;;;2.40;1.50;;;;;;;;;;5001123;28;20231;-85
2023/08/10 02:56:57;;;;;;;4.97;1.50;;;;;;;;;;4995151;28;20660;-86
2023/08/10 02:59:23;;;;;;;1.43;1.23;;;;;;;;;;5037408;28;20232;-85
2023/08/10 03:01:51;;;;;;;1.67;1.40;;;;;;;;;;5025844;28;20221;-86
2023/08/10 03:04:22;;;;;;;3.37;1.20;;;;;;;;;;5009232;28;20220;-85
2023/08/10 03:06:48;;;;;;;1.23;1.13;;;;;;;;;;4988547;28;20236;-86
2023/08/10 03:09:20;;;;;;;1.30;1.07;;;;;;;;;;4989385;28;20317;-85
2023/08/10 03:11:48;;;;;;;2.97;1.47;;;;;;;;;;4977098;28;20218;-85
2023/08/10 03:14:14;;;;;;;1.20;1.10;;;;;;;;;;5011458;28;20284;-86
2023/08/10 03:16:40;;;;;;;5.97;1.47;;;;;;;;;;5014386;28;20220;-85
2023/08/10 03:19:06;;;;;;;1.60;1.47;;;;;;;;;;4991240;28;20307;-84
2023/08/10 03:21:32;;;;;;;1.80;1.50;;;;;;;;;;4990429;28;20209;-86
2023/08/10 03:24:00;;;;;;;3.37;1.63;;;;;;;;;;4992956;28;20716;-85
2023/08/10 03:26:33;;;;;;;1.53;1.27;;;;;;;;;;5009707;28;20573;-86
2023/08/10 03:29:00;;;;;;;1.60;1.40;;;;;;;;;;4988593;28;20220;-86
2023/08/10 03:31:29;;;;;;;1.83;1.20;;;;;;;;;;5010542;28;20213;-86
2023/08/10 03:33:55;;;;;;;2.10;1.40;;;;;;;;;;4969378;28;20583;-85
2023/08/10 03:36:25;;;;;;;3.23;1.80;;;;;;;;;;4988788;28;20232;-85
2023/08/10 03:38:51;;;;;;;4.50;1.57;;;;;;;;;;5003722;28;20700;-85
2023/08/10 03:41:18;;;;;;;2.00;1.67;;;;;;;;;;4988851;28;20217;-85
2023/08/10 03:43:43;;;;;;;3.10;1.33;;;;;;;;;;5007046;28;20224;-85
2023/08/10 03:46:12;;;;;;;1.73;1.50;;;;;;;;;;4991710;28;20220;-85
2023/08/10 03:48:37;;;;;;;1.67;1.50;;;;;;;;;;4991831;28;20212;-85
2023/08/10 03:51:03;;;;;;;2.97;1.60;;;;;;;;;;5011202;28;20455;-85
2023/08/10 03:53:31;;;;;;;1.77;1.23;;;;;;;;;;4976470;28;20236;-85
2023/08/10 03:55:56;;;;;;;2.30;1.20;;;;;;;;;;4984762;28;20212;-85
2023/08/10 03:58:25;;;;;;;1.30;1.20;;;;;;;;;;4979619;28;21230;-85
2023/08/10 04:04:38;;;;;;;1.73;1.30;;;;;;;;;;5002171;28;20248;-85
2023/08/10 04:07:07;;;;;;;1.80;1.37;;;;;;;;;;4984743;28;20606;-84
2023/08/10 04:09:36;;;;;;;1.97;1.47;;;;;;;;;;4992323;28;20232;-84
2023/08/10 04:12:02;;;;;;;1.70;1.40;;;;;;;;;;4987574;28;20213;-85
2023/08/10 04:14:30;;;;;;;1.67;1.47;;;;;;;;;;4998959;28;20228;-85
2023/08/10 04:16:57;;;;;;;1.97;1.50;;;;;;;;;;5011335;28;20230;-86
2023/08/10 04:19:24;;;;;;;3.07;1.90;;;;;;;;;;5010229;28;20220;-85
2023/08/10 04:21:52;;;;;;;2.83;1.70;;;;;;;;;;5002635;28;20278;-86
2023/08/10 04:24:21;;;;;;;3.03;1.70;;;;;;;;;;5006828;28;20231;-85
2023/08/10 04:26:49;;;;;;;3.13;1.80;;;;;;;;;;5028645;28;20226;-85
2023/08/10 04:29:16;;;;;;;2.83;1.90;;;;;;;;;;4984960;28;20275;-85
2023/08/10 04:31:45;;;;;;;2.77;1.67;;;;;;;;;;5017950;28;20314;-86
2023/08/10 04:34:14;;;;;;;2.63;1.80;;;;;;;;;;4999261;28;20224;-86
2023/08/10 04:36:39;;;;;;;2.83;2.30;;;;;;;;;;5001497;28;20228;-85
2023/08/10 04:39:05;;;;;;;1.63;1.53;;;;;;;;;;5025032;28;20219;-84
2023/08/10 04:41:33;;;;;;;1.50;1.37;;;;;;;;;;4975666;28;20311;-84
2023/08/10 04:44:01;;;;;;;2.70;1.20;;;;;;;;;;4985348;28;20220;-83
2023/08/10 04:46:29;;;;;;;4.67;1.47;;;;;;;;;;4980405;28;20224;-85
2023/08/10 04:48:55;;;;;;;2.20;1.80;;;;;;;;;;5019488;28;20648;-85
2023/08/10 04:51:23;;;;;;;1.93;1.30;;;;;;;;;;4993271;28;20212;-84
2023/08/10 04:53:53;;;;;;;1.97;1.60;;;;;;;;;;5011975;28;20766;-84
2023/08/10 04:56:23;;;;;;;2.40;1.63;;;;;;;;;;5008134;28;20215;-84
2023/08/10 04:58:49;;;;;;;4.03;1.73;;;;;;;;;;4991583;28;20987;-85
2023/08/10 05:01:18;;;;;;;2.03;1.70;;;;;;;;;;5023875;28;20220;-85
2023/08/10 05:03:46;;;;;;;3.57;1.73;;;;;;;;;;5009125;28;20228;-84
2023/08/10 05:06:12;;;;;;;1.93;1.60;;;;;;;;;;4983678;28;20229;-84
2023/08/10 05:08:37;;;;;;;2.23;1.60;;;;;;;;;;5017929;28;20220;-85
2023/08/10 05:11:03;;;;;;;1.63;1.53;;;;;;;;;;5007394;28;20233;-84
2023/08/10 05:13:31;;;;;;;3.53;2.23;;;;;;;;;;5015974;28;20565;-84
2023/08/10 05:15:59;;;;;;;2.47;1.60;;;;;;;;;;5013947;28;20776;-84
2023/08/10 05:18:28;;;;;;;3.00;2.10;;;;;;;;;;5002354;28;20307;-84
2023/08/10 05:20:59;;;;;;;2.87;2.10;;;;;;;;;;5004188;28;20208;-85
2023/08/10 05:23:25;;;;;;;6.53;2.00;;;;;;;;;;5003275;28;20221;-84
2023/08/10 05:25:53;;;;;;;4.50;1.93;;;;;;;;;;4988214;28;20248;-85
2023/08/10 05:28:23;;;;;;;4.90;2.10;;;;;;;;;;5001903;28;20756;-84
2023/08/10 05:30:51;;;;;;;2.27;1.70;;;;;;;;;;5017452;28;20708;-85
2023/08/10 05:33:16;;;;;;;3.33;2.23;;;;;;;;;;5027636;28;20239;-86
2023/08/10 05:35:46;;;;;;;2.73;1.90;;;;;;;;;;5008709;28;20215;-86
2023/08/10 05:38:12;;;;;;;2.35;1.90;;;;;;;;;;5011074;28;20307;-86
2023/08/10 05:40:40;;;;;;;2.03;1.83;;;;;;;;;;4980964;28;20266;-84
2023/08/10 05:43:06;;;;;;;2.73;2.20;;;;;;;;;;4987053;28;20222;-84
2023/08/10 05:45:34;;;;;;;4.00;2.23;;;;;;;;;;4996318;28;20741;-85
2023/08/10 05:48:00;;;;;;;3.57;2.53;;;;;;;;;;5013714;28;20308;-85
2023/08/10 05:50:26;;;;;;;2.97;2.30;;;;;;;;;;5021799;28;20212;-84
2023/08/10 05:52:51;;;;;;;2.37;2.17;;;;;;;;;;4980858;28;20252;-84
2023/08/10 05:55:17;;;;;;;3.50;2.40;;;;;;;;;;4979545;28;20582;-85
2023/08/10 05:57:47;;;;;;;3.63;2.33;;;;;;;;;;5022849;28;20217;-85
2023/08/10 06:00:16;;;;;;;2.63;2.23;;;;;;;;;;4994695;28;20246;-85
2023/08/10 06:02:45;;;;;;;2.85;2.13;;;;;;;;;;4979677;28;20233;-85
2023/08/10 06:05:15;;;;;;;5.53;2.13;;;;;;;;;;4959410;28;20244;-85
2023/08/10 06:07:47;;;;;;;2.90;2.20;;;;;;;;;;5000530;28;20232;-84
2023/08/10 06:10:16;;;;;;;2.57;2.00;;;;;;;;;;4988452;28;20220;-84
2023/08/10 06:12:41;;;;;;;4.17;2.17;;;;;;;;;;5001985;28;20240;-84
2023/08/10 06:15:09;;;;;;;3.70;2.10;;;;;;;;;;5017269;28;20224;-85
2023/08/10 06:17:36;;;;;;;3.33;2.27;;;;;;;;;;4979314;28;20603;-86
2023/08/10 06:20:09;;;;;;;4.13;2.65;;;;;;;;;;4984836;28;20260;-86
2023/08/10 06:22:38;;;;;;;4.13;2.30;;;;;;;;;;5010673;28;20230;-86
2023/08/10 06:25:04;;;;;;;4.05;2.10;;;;;;;;;;5014406;28;20222;-86
2023/08/10 06:27:33;;;;;;;2.95;1.88;;;;;;;;;;4997960;28;20227;-85
2023/08/10 06:30:01;;;;;;;3.55;2.13;;;;;;;;;;5012707;28;20222;-83
2023/08/10 06:32:26;;;;;;;3.33;1.90;;;;;;;;;;5002602;28;20220;-85
2023/08/10 06:34:56;;;;;;;2.03;1.83;;;;;;;;;;4995815;28;20606;-86
2023/08/10 06:37:26;;;;;;;3.90;2.10;;;;;;;;;;5012434;28;20225;-88
2023/08/10 06:39:51;;;;;;;4.18;2.22;;;;;;;;;;5010286;28;20236;-84
2023/08/10 06:42:20;;;;;;;4.55;1.80;;;;;;;;;;5014022;28;20263;-84
2023/08/10 06:44:54;;;;;;;3.67;2.03;;;;;;;;;;4993666;28;20216;-83
2023/08/10 06:47:22;;;;;;;3.20;1.65;;;;;;;;;;4997573;28;20220;-85
2023/08/10 06:49:48;;;;;;;2.40;1.70;;;;;;;;;;4978300;28;20313;-84
2023/08/10 06:52:17;;;;;;;5.45;2.10;;;;;;;;;;5002252;28;20329;-86
2023/08/10 06:54:42;;;;;;;4.75;1.75;;;;;;;;;;5015962;28;20315;-85
2023/08/10 06:57:11;;;;;;;4.03;1.63;;;;;;;;;;4978550;28;20225;-86
2023/08/10 06:59:36;;;;;;;5.18;1.80;;;;;;;;;;5022045;28;20233;-85
2023/08/10 07:02:02;;;;;;;6.78;1.98;;;;;;;;;;4994733;28;20219;-84
2023/08/10 07:04:29;;;;;;;6.22;1.85;;;;;;;;;;5030635;28;20223;-86
2023/08/10 07:06:55;;;;;;;3.10;1.48;;;;;;;;;;5010569;28;20212;-83
2023/08/10 07:09:23;;;;;;;4.85;1.92;;;;;;;;;;5013764;28;20589;-84
2023/08/10 07:11:48;;;;;;;4.97;1.33;;;;;;;;;;5017444;28;20573;-87
2023/08/10 07:14:14;;;;;;;6.03;1.88;;;;;;;;;;4999350;28;20224;-87
2023/08/10 07:16:39;;;;;;;4.28;1.50;;;;;;;;;;5003741;28;20232;-82
2023/08/10 07:19:05;;;;;;;3.15;1.50;;;;;;;;;;5011194;28;20251;-83
2023/08/10 07:21:33;;;;;;;7.63;1.73;;;;;;;;;;5014121;28;20290;-83
2023/08/10 07:23:58;;;;;;;3.22;1.58;;;;;;;;;;5031584;28;20208;-85
2023/08/10 07:26:24;;;;;;;25.67;2.00;;;;;;;;;;5015221;28;20216;-84
2023/08/10 07:28:50;;;;;;;5.38;1.98;;;;;;;;;;5011312;28;20215;-83
2023/08/10 07:31:18;;;;;;;6.85;1.58;;;;;;;;;;5038507;28;20715;-86
2023/08/10 07:33:46;;;;;;;4.22;1.45;;;;;;;;;;5000010;28;20239;-84
2023/08/10 07:36:15;;;;;;;6.63;2.30;;;;;;;;;;5019171;28;20223;-84
2023/08/10 07:38:43;;;;;;;5.68;1.90;;;;;;;;;;5027780;28;20221;-80
2023/08/10 07:41:11;;;;;;;4.45;1.58;;;;;;;;;;4972917;28;20220;-81
2023/08/10 07:43:38;;;;;;;8.25;1.90;;;;;;;;;;5045070;28;20867;-81
2023/08/10 07:46:03;;;;;;;3.40;1.48;;;;;;;;;;4989170;28;20220;-80
2023/08/10 07:48:29;;;;;;;5.85;2.40;;;;;;;;;;5033367;28;20276;-80
2023/08/10 07:50:56;;;;;;;5.32;1.77;;;;;;;;;;5033690;28;20248;-81
2023/08/10 07:53:21;;;;;;;6.32;2.10;;;;;;;;;;4986738;28;20227;-81
2023/08/10 07:55:47;;;;;;;5.63;2.00;;;;;;;;;;5037416;28;20217;-79
2023/08/10 07:58:14;;;;;;;3.35;1.75;;;;;;;;;;5002518;28;20277;-80
2023/08/10 08:00:45;;;;;;;7.75;2.10;;;;;;;;;;4977932;28;20351;-79
2023/08/10 08:03:13;;;;;;;4.47;2.00;;;;;;;;;;4993973;28;20224;-80
2023/08/10 08:05:41;;;;;;;4.20;1.58;;;;;;;;;;4995439;28;20216;-79
2023/08/10 08:08:07;;;;;;;5.90;2.20;;;;;;;;;;5032517;28;20593;-79
2023/08/10 08:10:33;;;;;;;3.55;1.52;;;;;;;;;;5022929;28;20220;-80
2023/08/10 08:12:59;;;;;;;4.55;1.50;;;;;;;;;;5014941;28;20239;-79
2023/08/10 08:15:27;;;;;;;3.83;1.65;;;;;;;;;;4999421;28;20644;-79
2023/08/10 08:18:31;;;;;;;4.10;1.73;;;;;;;;;;5031103;28;20638;-76
2023/08/10 08:20:57;;;;;;;4.80;1.80;;;;;;;;;;5043206;28;20266;-79
2023/08/10 08:23:23;;;;;;;7.13;1.60;;;;;;;;;;5008132;28;20228;-77
2023/08/10 08:25:53;;;;;;;3.35;1.20;;;;;;;;;;5008279;28;20220;-76
2023/08/10 08:28:18;;;;;;;3.35;1.42;;;;;;;;;;5046672;28;20224;-85
2023/08/10 08:30:44;;;;;;;3.17;1.10;;;;;;;;;;5013921;28;20281;-84
2023/08/10 08:33:12;;;;;;;1.95;1.23;;;;;;;;;;4997915;28;20247;-83
2023/08/10 08:35:42;;;;;;;2.58;1.23;;;;;;;;;;5032946;28;20217;-83
2023/08/10 08:38:08;;;;;;;2.17;1.25;;;;;;;;;;5030656;28;20223;-83
2023/08/10 08:40:36;;;;;;;2.25;1.20;;;;;;;;;;5008385;28;20254;-81
2023/08/10 08:43:03;;;;;;;2.75;1.10;;;;;;;;;;5001308;28;20281;-85
2023/08/10 08:45:29;;;;;;;2.55;1.30;;;;;;;;;;5014556;28;20232;-87
2023/08/10 08:47:54;;;;;;;2.72;1.13;;;;;;;;;;5029491;28;20224;-87
2023/08/10 08:50:20;;;;;;;1.45;1.05;;;;;;;;;;5017071;28;20303;-86
2023/08/10 08:52:48;;;;;;;2.15;1.05;;;;;;;;;;5018847;28;20231;-86
2023/08/10 08:55:16;;;;;;;4.93;1.00;;;;;;;;;;4981613;28;20284;-84
2023/08/10 08:57:41;;;;;;;2.50;1.10;;;;;;;;;;4991630;28;20259;-85
2023/08/10 09:00:08;;;;;;;3.63;1.20;;;;;;;;;;5011948;28;20632;-85
2023/08/10 09:02:33;;;;;;;3.70;1.20;;;;;;;;;;4985116;28;20220;-86
2023/08/10 09:04:59;;;;;;;2.85;1.15;;;;;;;;;;5041308;28;20228;-86
2023/08/10 09:07:26;;;;;;;3.90;1.42;;;;;;;;;;5031664;28;20272;-83
2023/08/10 09:09:52;;;;;;;3.58;1.33;;;;;;;;;;5049177;28;20613;-88
2023/08/10 09:12:34;;;;;;;3.75;1.30;;;;;;;;;;5003298;28;20224;-88
2023/08/10 09:15:06;;;;;;;5.93;1.63;;;;;;;;;;5020173;28;20261;-88
2023/08/10 09:17:35;;;;;;;2.22;1.38;;;;;;;;;;5018984;28;20220;-85
2023/08/10 09:20:02;;;;;;;3.15;1.27;;;;;;;;;;5022698;28;20251;-84
2023/08/10 09:22:34;;;;;;;5.55;1.30;;;;;;;;;;5037051;28;20547;-84
2023/08/10 09:25:01;;;;;;;3.38;1.00;;;;;;;;;;5050332;28;20220;-88
2023/08/10 09:27:27;;;;;;;3.47;1.15;;;;;;;;;;5034584;28;20212;-88
2023/08/10 09:29:58;;;;;;;1.77;1.08;;;;;;;;;;5014921;28;20248;-85
2023/08/10 09:32:24;;;;;;;5.03;1.45;;;;;;;;;;4993700;28;20255;-86
2023/08/10 09:34:54;;;;;;;2.45;1.10;;;;;;;;;;5005254;28;20219;-87
2023/08/10 09:37:20;;;;;;;2.38;1.35;;;;;;;;;;5003697;28;20217;-85
2023/08/10 09:39:52;;;;;;;4.90;1.13;;;;;;;;;;5024778;28;20228;-86
2023/08/10 09:42:21;;;;;;;4.82;1.33;;;;;;;;;;5019800;28;20231;-84
2023/08/10 09:44:50;;;;;;;2.05;1.20;;;;;;;;;;5023106;28;20215;-87
2023/08/10 09:47:16;;;;;;;3.70;1.02;;;;;;;;;;5019691;28;20236;-86
2023/08/10 09:50:00;;;;;;;1.48;1.00;;;;;;;;;;5018733;28;20224;-85
2023/08/10 09:52:34;;;;;;;4.18;1.10;;;;;;;;;;5052148;28;20228;-86
2023/08/10 09:54:59;;;;;;;3.15;1.02;;;;;;;;;;5038004;28;20216;-83
2023/08/10 09:57:25;;;;;;;3.72;1.17;;;;;;;;;;5037927;28;20295;-86
2023/08/10 09:59:54;;;;;;;4.25;1.30;;;;;;;;;;5021850;28;20215;-85
2023/08/10 10:02:22;;;;;;;2.30;1.20;;;;;;;;;;4990654;28;21459;-84
2023/08/10 10:04:53;;;;;;;3.03;1.27;;;;;;;;;;5019898;28;20212;-84
2023/08/10 10:07:25;;;;;;;1.10;1.00;;;;;;;;;;5035662;28;21070;-89
2023/08/10 10:09:56;;;;;;;2.65;1.25;;;;;;;;;;5013567;28;20219;-88
2023/08/10 10:12:21;;;;;;;1.52;1.00;;;;;;;;;;5001979;28;20365;-86
2023/08/10 10:14:47;;;;;;;1.25;0.90;;;;;;;;;;5033694;28;20216;-86
2023/08/10 10:17:14;;;;;;;3.38;1.52;;;;;;;;;;5001557;28;20220;-87
2023/08/10 10:19:42;;;;;;;2.38;1.13;;;;;;;;;;5000788;28;20232;-85
2023/08/10 10:22:11;;;;;;;3.58;1.33;;;;;;;;;;5005246;28;20560;-84
2023/08/10 10:24:41;;;;;;;3.25;1.30;;;;;;;;;;5008634;28;21007;-84
2023/08/10 10:27:13;;;;;;;2.85;0.93;;;;;;;;;;5022235;28;20682;-85
2023/08/10 10:29:41;;;;;;;2.90;1.40;;;;;;;;;;4979068;28;20221;-84
2023/08/10 10:32:09;;;;;;;2.85;1.20;;;;;;;;;;5024603;28;20226;-85
2023/08/10 10:34:38;;;;;;;2.50;1.20;;;;;;;;;;5022444;28;20603;-85
2023/08/10 10:37:10;;;;;;;3.72;1.25;;;;;;;;;;5015999;28;20224;-84
2023/08/10 10:39:36;;;;;;;4.25;1.40;;;;;;;;;;5029533;28;20220;-83
2023/08/10 10:42:02;;;;;;;3.33;1.30;;;;;;;;;;5062857;28;20475;-84
2023/08/10 10:45:00;;;;;;;1.60;0.90;;;;;;;;;;5049929;28;20300;-86
2023/08/10 10:47:38;;;;;;;3.13;1.38;;;;;;;;;;5005497;28;20228;-86
2023/08/10 10:50:20;;;;;;;3.22;1.27;;;;;;;;;;5020212;28;20224;-85
2023/08/10 10:52:55;;;;;;;4.43;1.40;;;;;;;;;;5015946;28;20231;-84
2023/08/10 10:55:27;;;;;;;1.42;1.00;;;;;;;;;;5031141;28;20230;-85
2023/08/10 10:57:53;;;;;;;3.38;1.40;;;;;;;;;;5034306;28;20223;-85
2023/08/10 11:00:19;;;;;;;2.90;1.13;;;;;;;;;;5005495;28;20231;-80
2023/08/10 11:02:45;;;;;;;3.25;1.20;;;;;;;;;;4984298;28;21163;-80
2023/08/10 11:05:17;;;;;;;4.68;1.40;;;;;;;;;;5032936;28;20219;-81
2023/08/10 11:07:42;;;;;;;3.40;1.30;;;;;;;;;;4998458;28;20228;-81
2023/08/10 11:10:08;;;;;;;2.63;1.20;;;;;;;;;;5030125;28;20300;-80
2023/08/10 11:12:39;;;;;;;3.22;1.30;;;;;;;;;;5012135;28;20232;-81
2023/08/10 11:15:09;;;;;;;2.20;1.33;;;;;;;;;;5015407;28;20231;-81
2023/08/10 11:17:37;;;;;;;3.22;1.20;;;;;;;;;;5027419;28;20200;-81
2023/08/10 11:20:14;;;;;;;4.28;1.35;;;;;;;;;;5014070;28;20231;-80
2023/08/10 11:22:44;;;;;;;2.47;1.30;;;;;;;;;;5021537;28;20239;-80
2023/08/10 11:25:11;;;;;;;1.75;1.15;;;;;;;;;;5014340;28;20265;-80
2023/08/10 11:27:39;;;;;;;4.00;1.33;;;;;;;;;;5042256;28;20228;-81
2023/08/10 11:30:05;;;;;;;2.80;1.27;;;;;;;;;;5010471;28;20225;-79
2023/08/10 11:32:33;;;;;;;2.00;1.23;;;;;;;;;;5009674;28;20224;-79
2023/08/10 11:35:00;;;;;;;2.53;1.27;;;;;;;;;;5044100;28;20224;-79
2023/08/10 11:37:33;;;;;;;2.10;1.10;;;;;;;;;;5023551;28;20278;-80
2023/08/10 11:40:11;;;;;;;2.17;1.20;;;;;;;;;;4991460;28;20229;-78
2023/08/10 11:42:44;;;;;;;3.10;1.40;;;;;;;;;;5032629;28;20212;-79
2023/08/10 11:45:23;;;;;;;4.85;1.45;;;;;;;;;;5040581;28;20252;-80
2023/08/10 11:47:51;;;;;;;2.53;1.30;;;;;;;;;;5007740;28;20287;-82
2023/08/10 11:50:17;;;;;;;3.30;1.20;;;;;;;;;;5025695;28;20545;-78
2023/08/10 11:52:43;;;;;;;2.40;1.10;;;;;;;;;;5042455;28;20220;-81
2023/08/10 11:55:13;;;;;;;2.05;1.00;;;;;;;;;;5012319;28;20569;-82
2023/08/10 11:57:42;;;;;;;2.95;1.08;;;;;;;;;;5028062;28;20298;-80
2023/08/10 12:00:28;;;;;;;4.28;1.00;;;;;;;;;;4996313;28;20232;-79
2023/08/10 12:03:14;;;;;;;2.72;0.90;;;;;;;;;;5024930;28;20257;-80
2023/08/10 12:05:45;;;;;;;4.65;1.30;;;;;;;;;;5010985;28;20335;-79
2023/08/10 12:08:18;;;;;;;1.52;1.20;;;;;;;;;;5025909;28;20243;-81
2023/08/10 12:10:50;;;;;;;1.85;0.85;;;;;;;;;;5026208;28;20273;-81
2023/08/10 12:13:17;;;;;;;2.55;1.15;;;;;;;;;;4990596;28;20220;-78
2023/08/10 12:15:51;;;;;;;2.55;1.05;;;;;;;;;;4994429;28;20231;-80
2023/08/10 12:18:18;;;;;;;1.00;0.88;;;;;;;;;;5011628;28;20216;-80
2023/08/10 12:20:45;;;;;;;2.10;1.00;;;;;;;;;;5015156;28;20278;-80
2023/08/10 12:23:13;;;;;;;3.05;1.00;;;;;;;;;;5010402;28;20246;-80
2023/08/10 12:25:44;;;;;;;1.02;0.93;;;;;;;;;;5012586;28;20709;-79
2023/08/10 12:28:12;;;;;;;4.20;1.10;;;;;;;;;;5003230;28;20216;-80
2023/08/10 12:30:40;;;;;;;4.28;1.10;;;;;;;;;;5006463;28;20816;-77
2023/08/10 12:33:11;;;;;;;3.22;1.00;;;;;;;;;;5026931;28;20220;-82
2023/08/10 12:35:37;;;;;;;2.30;0.90;;;;;;;;;;5041695;28;20216;-81
2023/08/10 12:38:03;;;;;;;3.28;1.42;;;;;;;;;;5005203;28;20208;-82
2023/08/10 12:40:32;;;;;;;1.73;0.93;;;;;;;;;;5022620;28;21133;-82
2023/08/10 12:43:02;;;;;;;3.50;1.15;;;;;;;;;;5019973;28;20243;-81
2023/08/10 12:45:32;;;;;;;3.78;1.10;;;;;;;;;;5036979;28;20227;-79
2023/08/10 12:48:00;;;;;;;6.05;1.05;;;;;;;;;;5016209;28;20295;-79
2023/08/10 12:50:33;;;;;;;2.58;0.85;;;;;;;;;;4984059;28;20226;-79
2023/08/10 12:52:59;;;;;;;2.00;0.90;;;;;;;;;;5001399;28;21289;-78
2023/08/10 12:55:26;;;;;;;5.07;1.10;;;;;;;;;;5001540;28;20221;-79
2023/08/10 12:57:52;;;;;;;3.33;1.20;;;;;;;;;;5013088;28;20217;-81
2023/08/10 13:00:23;;;;;;;5.38;1.00;;;;;;;;;;4994711;28;20247;-80
2023/08/10 13:02:48;;;;;;;7.38;1.30;;;;;;;;;;4986427;28;20228;-78
2023/08/10 13:05:16;;;;;;;2.15;0.93;;;;;;;;;;5004051;28;20332;-78
2023/08/10 13:07:45;;;;;;;1.88;1.00;;;;;;;;;;5028770;28;20227;-81
2023/08/10 13:10:11;;;;;;;3.00;1.02;;;;;;;;;;5033797;28;20230;-80
2023/08/10 13:12:36;;;;;;;2.72;1.30;;;;;;;;;;5016127;28;20292;-80
2023/08/10 13:15:08;;;;;;;1.13;0.82;;;;;;;;;;5010900;28;20228;-80
2023/08/10 13:17:39;;;;;;;1.40;0.90;;;;;;;;;;5037287;28;20636;-79
2023/08/10 13:20:05;;;;;;;1.98;0.95;;;;;;;;;;5032545;28;20240;-79
2023/08/10 13:22:35;;;;;;;1.67;0.90;;;;;;;;;;5006401;28;20226;-78
2023/08/10 13:25:01;;;;;;;2.95;1.20;;;;;;;;;;5006391;28;20215;-79
2023/08/10 13:27:29;;;;;;;1.30;0.95;;;;;;;;;;5016466;28;20212;-79
2023/08/10 13:29:55;;;;;;;1.52;1.00;;;;;;;;;;5022482;28;20302;-80
2023/08/10 13:32:21;;;;;;;4.40;1.10;;;;;;;;;;5034931;28;20224;-79
2023/08/10 13:34:47;;;;;;;3.90;1.17;;;;;;;;;;5015127;28;20383;-79
2023/08/10 13:37:15;;;;;;;1.15;1.00;;;;;;;;;;4979790;28;20728;-78
2023/08/10 13:39:45;;;;;;;1.58;0.90;;;;;;;;;;5015823;28;20311;-78
2023/08/10 13:42:13;;;;;;;2.05;1.10;;;;;;;;;;5033050;28;20230;-81
2023/08/10 13:44:40;;;;;;;4.07;1.00;;;;;;;;;;5013909;28;20306;-80
2023/08/10 13:47:08;;;;;;;3.83;1.20;;;;;;;;;;5016182;28;20248;-79
2023/08/10 13:49:34;;;;;;;5.00;1.17;;;;;;;;;;5024191;28;20227;-79
2023/08/10 13:52:00;;;;;;;2.60;0.90;;;;;;;;;;4978384;28;20224;-77
2023/08/10 13:54:31;;;;;;;1.23;0.93;;;;;;;;;;5024575;28;20227;-80
2023/08/10 13:57:03;;;;;;;3.63;0.93;;;;;;;;;;5034447;28;20212;-81
2023/08/10 13:59:28;;;;;;;3.33;1.10;;;;;;;;;;5049984;28;20232;-81
2023/08/10 14:01:54;;;;;;;2.38;1.05;;;;;;;;;;5053164;28;20220;-77
2023/08/10 14:04:22;;;;;;;0.90;0.80;;;;;;;;;;5031795;28;20266;-79
2023/08/10 14:06:48;;;;;;;3.33;1.23;;;;;;;;;;5017633;28;20228;-81
2023/08/10 14:09:17;;;;;;;1.08;0.90;;;;;;;;;;5019549;28;20217;-80
2023/08/10 14:11:46;;;;;;;4.55;1.10;;;;;;;;;;5031338;28;20247;-80
2023/08/10 14:14:12;;;;;;;2.10;0.93;;;;;;;;;;5032471;28;20248;-81
2023/08/10 14:16:38;;;;;;;1.45;1.10;;;;;;;;;;5034206;28;20212;-76
2023/08/10 14:19:04;;;;;;;2.50;1.33;;;;;;;;;;5013159;28;20274;-81
2023/08/10 14:21:29;;;;;;;3.05;1.10;;;;;;;;;;5025900;28;20244;-81
2023/08/10 14:23:55;;;;;;;3.65;0.90;;;;;;;;;;5019177;28;20262;-80
2023/08/10 14:26:20;;;;;;;2.60;1.08;;;;;;;;;;5042803;28;20228;-80
2023/08/10 14:28:48;;;;;;;2.33;1.15;;;;;;;;;;5038279;28;20223;-81
2023/08/10 14:31:14;;;;;;;1.73;1.13;;;;;;;;;;5019295;28;20491;-78
2023/08/10 14:33:39;;;;;;;1.95;1.00;;;;;;;;;;4988195;28;20258;-80
2023/08/10 14:36:09;;;;;;;3.33;1.00;;;;;;;;;;5047780;28;20731;-80
2023/08/10 14:38:37;;;;;;;2.00;1.20;;;;;;;;;;5031953;28;20216;-81
2023/08/10 14:41:02;;;;;;;2.22;1.10;;;;;;;;;;5015171;28;20282;-80
2023/08/10 14:43:29;;;;;;;1.83;1.10;;;;;;;;;;5022080;28;20235;-79
2023/08/10 14:45:55;;;;;;;5.72;1.20;;;;;;;;;;5011417;28;20710;-78
2023/08/10 14:48:23;;;;;;;2.15;1.15;;;;;;;;;;5010840;28;20676;-78
2023/08/10 14:50:51;;;;;;;2.28;1.02;;;;;;;;;;5017316;28;20244;-80
2023/08/10 14:53:20;;;;;;;2.72;1.10;;;;;;;;;;5019701;28;21269;-79